sensor_id;sensor_type;location;lat;lon;timestamp;P1;durP1;ratioP1;P2;durP2;ratioP2
39140;SDS011;24875;48.436;10.298;2022-12-18T00:02:07;33.63;;;13.37;;
39140;SDS011;24875;48.436;10.298;2022-12-18T00:04:33;39.70;;;13.07;;
39140;SDS011;24875;48.436;10.298;2022-12-18T00:07:01;21.47;;;8.90;;
39140;SDS011;24875;48.436;10.298;2022-12-18T00:09:28;30.50;;;11.77;;
39140;SDS011;24875;48.436;10.298;2022-12-18T00:11:54;39.33;;;11.03;;
39140;SDS011;24875;48.436;10.298;2022-12-18T00:14:21;22.23;;;12.03;;
39140;SDS011;24875;48.436;10.298;2022-12-18T00:16:47;27.13;;;10.27;;
39140;SDS011;24875;48.436;10.298;2022-12-18T00:19:14;43.90;;;13.93;;
39140;SDS011;24875;48.436;10.298;2022-12-18T00:21:41;32.40;;;13.83;;
39140;SDS011;24875;48.436;10.298;2022-12-18T00:24:10;39.30;;;13.23;;
39140;SDS011;24875;48.436;10.298;2022-12-18T00:26:37;33.43;;;11.63;;
39140;SDS011;24875;48.436;10.298;2022-12-18T00:29:05;37.57;;;14.40;;
39140;SDS011;24875;48.436;10.298;2022-12-18T00:31:34;35.23;;;12.17;;
39140;SDS011;24875;48.436;10.298;2022-12-18T00:34:01;51.07;;;13.27;;
39140;SDS011;24875;48.436;10.298;2022-12-18T00:36:28;36.93;;;15.47;;
39140;SDS011;24875;48.436;10.298;2022-12-18T00:38:56;28.93;;;11.47;;
39140;SDS011;24875;48.436;10.298;2022-12-18T00:41:25;38.60;;;11.97;;
39140;SDS011;24875;48.436;10.298;2022-12-18T00:44:10;28.30;;;11.40;;
39140;SDS011;24875;48.436;10.298;2022-12-18T00:46:38;32.33;;;10.60;;
39140;SDS011;24875;48.436;10.298;2022-12-18T00:49:04;34.33;;;9.87;;
39140;SDS011;24875;48.436;10.298;2022-12-18T00:51:31;42.67;;;12.70;;
39140;SDS011;24875;48.436;10.298;2022-12-18T00:53:58;42.87;;;13.43;;
39140;SDS011;24875;48.436;10.298;2022-12-18T00:56:26;29.80;;;11.93;;
39140;SDS011;24875;48.436;10.298;2022-12-18T00:58:52;32.70;;;14.27;;
39140;SDS011;24875;48.436;10.298;2022-12-18T01:01:19;47.27;;;14.13;;
39140;SDS011;24875;48.436;10.298;2022-12-18T01:03:46;36.90;;;12.87;;
39140;SDS011;24875;48.436;10.298;2022-12-18T01:06:13;32.03;;;13.23;;
39140;SDS011;24875;48.436;10.298;2022-12-18T01:08:40;33.40;;;12.83;;
39140;SDS011;24875;48.436;10.298;2022-12-18T01:11:07;38.90;;;12.47;;
39140;SDS011;24875;48.436;10.298;2022-12-18T01:13:37;35.67;;;13.00;;
39140;SDS011;24875;48.436;10.298;2022-12-18T01:16:04;25.87;;;10.57;;
39140;SDS011;24875;48.436;10.298;2022-12-18T01:18:31;20.73;;;10.80;;
39140;SDS011;24875;48.436;10.298;2022-12-18T01:20:57;42.77;;;12.93;;
39140;SDS011;24875;48.436;10.298;2022-12-18T01:23:27;32.40;;;13.93;;
39140;SDS011;24875;48.436;10.298;2022-12-18T01:25:53;29.43;;;11.17;;
39140;SDS011;24875;48.436;10.298;2022-12-18T01:28:20;36.27;;;11.20;;
39140;SDS011;24875;48.436;10.298;2022-12-18T01:30:47;31.90;;;13.63;;
39140;SDS011;24875;48.436;10.298;2022-12-18T01:33:14;30.70;;;13.33;;
39140;SDS011;24875;48.436;10.298;2022-12-18T01:35:41;22.77;;;9.83;;
39140;SDS011;24875;48.436;10.298;2022-12-18T01:38:08;47.10;;;11.17;;
39140;SDS011;24875;48.436;10.298;2022-12-18T01:40:35;37.97;;;14.17;;
39140;SDS011;24875;48.436;10.298;2022-12-18T01:43:01;22.10;;;11.43;;
39140;SDS011;24875;48.436;10.298;2022-12-18T01:45:29;19.43;;;9.03;;
39140;SDS011;24875;48.436;10.298;2022-12-18T01:47:58;33.47;;;9.87;;
39140;SDS011;24875;48.436;10.298;2022-12-18T01:50:28;40.90;;;12.60;;
39140;SDS011;24875;48.436;10.298;2022-12-18T01:52:59;25.80;;;11.07;;
39140;SDS011;24875;48.436;10.298;2022-12-18T01:55:31;26.80;;;12.27;;
39140;SDS011;24875;48.436;10.298;2022-12-18T01:58:02;31.07;;;10.77;;
39140;SDS011;24875;48.436;10.298;2022-12-18T02:00:29;34.67;;;11.77;;
39140;SDS011;24875;48.436;10.298;2022-12-18T02:02:57;29.37;;;11.17;;
39140;SDS011;24875;48.436;10.298;2022-12-18T02:05:27;45.07;;;15.47;;
39140;SDS011;24875;48.436;10.298;2022-12-18T02:08:03;33.40;;;13.40;;
39140;SDS011;24875;48.436;10.298;2022-12-18T02:10:37;31.13;;;13.10;;
39140;SDS011;24875;48.436;10.298;2022-12-18T02:13:12;41.37;;;12.77;;
39140;SDS011;24875;48.436;10.298;2022-12-18T02:15:42;24.67;;;11.37;;
39140;SDS011;24875;48.436;10.298;2022-12-18T02:18:16;29.53;;;11.87;;
39140;SDS011;24875;48.436;10.298;2022-12-18T02:20:47;35.00;;;12.83;;
39140;SDS011;24875;48.436;10.298;2022-12-18T02:23:22;25.50;;;12.20;;
39140;SDS011;24875;48.436;10.298;2022-12-18T02:26:04;33.63;;;12.10;;
39140;SDS011;24875;48.436;10.298;2022-12-18T02:28:36;38.27;;;15.07;;
39140;SDS011;24875;48.436;10.298;2022-12-18T02:31:08;18.50;;;7.90;;
39140;SDS011;24875;48.436;10.298;2022-12-18T02:33:39;32.00;;;11.83;;
39140;SDS011;24875;48.436;10.298;2022-12-18T02:36:08;39.73;;;13.23;;
39140;SDS011;24875;48.436;10.298;2022-12-18T02:38:37;26.53;;;10.40;;
39140;SDS011;24875;48.436;10.298;2022-12-18T02:41:06;35.47;;;12.60;;
39140;SDS011;24875;48.436;10.298;2022-12-18T02:43:33;40.70;;;11.43;;
39140;SDS011;24875;48.436;10.298;2022-12-18T02:46:00;26.63;;;11.77;;
39140;SDS011;24875;48.436;10.298;2022-12-18T02:48:51;25.27;;;10.57;;
39140;SDS011;24875;48.436;10.298;2022-12-18T02:51:25;31.53;;;8.97;;
39140;SDS011;24875;48.436;10.298;2022-12-18T02:53:58;23.00;;;8.93;;
39140;SDS011;24875;48.436;10.298;2022-12-18T02:56:35;23.13;;;8.87;;
39140;SDS011;24875;48.436;10.298;2022-12-18T02:59:06;30.77;;;10.17;;
39140;SDS011;24875;48.436;10.298;2022-12-18T03:01:38;27.30;;;12.87;;
39140;SDS011;24875;48.436;10.298;2022-12-18T03:04:11;34.67;;;11.33;;
39140;SDS011;24875;48.436;10.298;2022-12-18T03:06:43;33.37;;;10.07;;
39140;SDS011;24875;48.436;10.298;2022-12-18T03:09:15;31.30;;;10.23;;
39140;SDS011;24875;48.436;10.298;2022-12-18T03:11:47;17.57;;;11.80;;
39140;SDS011;24875;48.436;10.298;2022-12-18T03:14:38;36.83;;;12.00;;
39140;SDS011;24875;48.436;10.298;2022-12-18T03:17:09;17.70;;;8.67;;
39140;SDS011;24875;48.436;10.298;2022-12-18T03:19:39;56.83;;;12.10;;
39140;SDS011;24875;48.436;10.298;2022-12-18T03:22:09;23.53;;;6.90;;
39140;SDS011;24875;48.436;10.298;2022-12-18T03:24:36;45.87;;;10.37;;
39140;SDS011;24875;48.436;10.298;2022-12-18T03:27:06;43.83;;;10.53;;
39140;SDS011;24875;48.436;10.298;2022-12-18T03:29:37;38.20;;;10.30;;
39140;SDS011;24875;48.436;10.298;2022-12-18T03:32:07;26.60;;;11.53;;
39140;SDS011;24875;48.436;10.298;2022-12-18T03:34:41;28.00;;;10.47;;
39140;SDS011;24875;48.436;10.298;2022-12-18T03:37:08;29.17;;;13.57;;
39140;SDS011;24875;48.436;10.298;2022-12-18T03:39:36;33.60;;;11.30;;
39140;SDS011;24875;48.436;10.298;2022-12-18T03:42:04;26.43;;;10.57;;
39140;SDS011;24875;48.436;10.298;2022-12-18T03:44:39;33.47;;;10.03;;
39140;SDS011;24875;48.436;10.298;2022-12-18T03:47:12;32.63;;;10.37;;
39140;SDS011;24875;48.436;10.298;2022-12-18T03:49:44;23.40;;;7.50;;
39140;SDS011;24875;48.436;10.298;2022-12-18T03:52:18;16.47;;;9.03;;
39140;SDS011;24875;48.436;10.298;2022-12-18T03:54:50;24.43;;;12.00;;
39140;SDS011;24875;48.436;10.298;2022-12-18T03:57:20;29.67;;;10.97;;
39140;SDS011;24875;48.436;10.298;2022-12-18T03:59:50;27.17;;;9.97;;
39140;SDS011;24875;48.436;10.298;2022-12-18T04:02:20;34.33;;;12.93;;
39140;SDS011;24875;48.436;10.298;2022-12-18T04:04:49;21.97;;;11.30;;
39140;SDS011;24875;48.436;10.298;2022-12-18T04:07:19;33.07;;;11.17;;
39140;SDS011;24875;48.436;10.298;2022-12-18T04:09:46;18.57;;;8.47;;
39140;SDS011;24875;48.436;10.298;2022-12-18T04:12:15;27.83;;;10.17;;
39140;SDS011;24875;48.436;10.298;2022-12-18T04:14:43;27.83;;;11.60;;
39140;SDS011;24875;48.436;10.298;2022-12-18T04:17:09;25.87;;;9.73;;
39140;SDS011;24875;48.436;10.298;2022-12-18T04:19:36;44.43;;;12.47;;
39140;SDS011;24875;48.436;10.298;2022-12-18T04:22:03;39.33;;;11.17;;
39140;SDS011;24875;48.436;10.298;2022-12-18T04:24:29;29.07;;;12.60;;
39140;SDS011;24875;48.436;10.298;2022-12-18T04:26:56;30.67;;;11.30;;
39140;SDS011;24875;48.436;10.298;2022-12-18T04:29:22;38.23;;;12.53;;
39140;SDS011;24875;48.436;10.298;2022-12-18T04:31:50;43.63;;;12.47;;
39140;SDS011;24875;48.436;10.298;2022-12-18T04:34:17;16.77;;;10.00;;
39140;SDS011;24875;48.436;10.298;2022-12-18T04:36:43;27.70;;;11.07;;
39140;SDS011;24875;48.436;10.298;2022-12-18T04:39:10;28.83;;;8.87;;
39140;SDS011;24875;48.436;10.298;2022-12-18T04:41:36;30.10;;;11.80;;
39140;SDS011;24875;48.436;10.298;2022-12-18T04:44:03;28.07;;;11.07;;
39140;SDS011;24875;48.436;10.298;2022-12-18T04:46:30;68.37;;;14.80;;
39140;SDS011;24875;48.436;10.298;2022-12-18T04:48:58;32.30;;;12.87;;
39140;SDS011;24875;48.436;10.298;2022-12-18T04:51:24;29.43;;;11.17;;
39140;SDS011;24875;48.436;10.298;2022-12-18T04:53:51;33.93;;;8.77;;
39140;SDS011;24875;48.436;10.298;2022-12-18T04:56:18;29.43;;;13.10;;
39140;SDS011;24875;48.436;10.298;2022-12-18T04:58:44;33.93;;;12.77;;
39140;SDS011;24875;48.436;10.298;2022-12-18T05:01:11;40.10;;;12.30;;
39140;SDS011;24875;48.436;10.298;2022-12-18T05:03:39;45.87;;;11.97;;
39140;SDS011;24875;48.436;10.298;2022-12-18T05:06:08;26.97;;;12.03;;
39140;SDS011;24875;48.436;10.298;2022-12-18T05:08:35;24.83;;;11.17;;
39140;SDS011;24875;48.436;10.298;2022-12-18T05:11:03;40.97;;;11.27;;
39140;SDS011;24875;48.436;10.298;2022-12-18T05:13:31;46.77;;;14.27;;
39140;SDS011;24875;48.436;10.298;2022-12-18T05:15:58;36.57;;;13.03;;
39140;SDS011;24875;48.436;10.298;2022-12-18T05:18:25;37.90;;;11.50;;
39140;SDS011;24875;48.436;10.298;2022-12-18T05:20:53;34.23;;;12.07;;
39140;SDS011;24875;48.436;10.298;2022-12-18T05:23:22;40.17;;;12.47;;
39140;SDS011;24875;48.436;10.298;2022-12-18T05:25:50;47.17;;;14.10;;
39140;SDS011;24875;48.436;10.298;2022-12-18T05:28:17;39.37;;;13.20;;
39140;SDS011;24875;48.436;10.298;2022-12-18T05:30:46;36.47;;;12.60;;
39140;SDS011;24875;48.436;10.298;2022-12-18T05:33:14;36.33;;;14.20;;
39140;SDS011;24875;48.436;10.298;2022-12-18T05:35:40;39.53;;;13.43;;
39140;SDS011;24875;48.436;10.298;2022-12-18T05:38:07;24.70;;;10.83;;
39140;SDS011;24875;48.436;10.298;2022-12-18T05:40:35;29.30;;;9.30;;
39140;SDS011;24875;48.436;10.298;2022-12-18T05:43:01;43.10;;;10.90;;
39140;SDS011;24875;48.436;10.298;2022-12-18T05:45:28;38.77;;;13.67;;
39140;SDS011;24875;48.436;10.298;2022-12-18T05:47:55;31.07;;;11.43;;
39140;SDS011;24875;48.436;10.298;2022-12-18T05:50:21;45.87;;;10.83;;
39140;SDS011;24875;48.436;10.298;2022-12-18T05:52:48;34.63;;;10.93;;
39140;SDS011;24875;48.436;10.298;2022-12-18T05:55:14;24.67;;;10.50;;
39140;SDS011;24875;48.436;10.298;2022-12-18T05:57:42;41.93;;;14.77;;
39140;SDS011;24875;48.436;10.298;2022-12-18T06:00:10;31.07;;;11.03;;
39140;SDS011;24875;48.436;10.298;2022-12-18T06:02:37;47.40;;;11.37;;
39140;SDS011;24875;48.436;10.298;2022-12-18T06:05:04;39.50;;;12.23;;
39140;SDS011;24875;48.436;10.298;2022-12-18T06:07:31;32.30;;;10.97;;
39140;SDS011;24875;48.436;10.298;2022-12-18T06:09:58;34.40;;;12.00;;
39140;SDS011;24875;48.436;10.298;2022-12-18T06:12:24;47.10;;;14.43;;
39140;SDS011;24875;48.436;10.298;2022-12-18T06:14:52;29.43;;;10.23;;
39140;SDS011;24875;48.436;10.298;2022-12-18T06:17:19;33.53;;;11.73;;
39140;SDS011;24875;48.436;10.298;2022-12-18T06:19:46;31.33;;;9.50;;
39140;SDS011;24875;48.436;10.298;2022-12-18T06:22:12;29.23;;;9.00;;
39140;SDS011;24875;48.436;10.298;2022-12-18T06:24:39;45.30;;;11.93;;
39140;SDS011;24875;48.436;10.298;2022-12-18T06:27:05;40.13;;;12.23;;
39140;SDS011;24875;48.436;10.298;2022-12-18T06:29:32;25.90;;;8.97;;
39140;SDS011;24875;48.436;10.298;2022-12-18T06:31:59;27.83;;;11.47;;
39140;SDS011;24875;48.436;10.298;2022-12-18T06:34:26;30.47;;;10.13;;
39140;SDS011;24875;48.436;10.298;2022-12-18T06:36:52;24.20;;;9.57;;
39140;SDS011;24875;48.436;10.298;2022-12-18T06:39:19;42.53;;;12.00;;
39140;SDS011;24875;48.436;10.298;2022-12-18T06:41:46;42.90;;;10.97;;
39140;SDS011;24875;48.436;10.298;2022-12-18T06:44:12;29.40;;;10.87;;
39140;SDS011;24875;48.436;10.298;2022-12-18T06:46:39;20.03;;;7.83;;
39140;SDS011;24875;48.436;10.298;2022-12-18T06:49:06;20.57;;;6.97;;
39140;SDS011;24875;48.436;10.298;2022-12-18T06:51:34;25.63;;;8.37;;
39140;SDS011;24875;48.436;10.298;2022-12-18T06:54:01;30.57;;;11.37;;
39140;SDS011;24875;48.436;10.298;2022-12-18T06:56:28;30.20;;;11.70;;
39140;SDS011;24875;48.436;10.298;2022-12-18T06:58:55;15.83;;;7.37;;
39140;SDS011;24875;48.436;10.298;2022-12-18T07:01:22;29.97;;;9.90;;
39140;SDS011;24875;48.436;10.298;2022-12-18T07:03:51;19.50;;;6.93;;
39140;SDS011;24875;48.436;10.298;2022-12-18T07:06:20;23.27;;;7.87;;
39140;SDS011;24875;48.436;10.298;2022-12-18T07:08:48;20.27;;;7.70;;
39140;SDS011;24875;48.436;10.298;2022-12-18T07:11:16;17.80;;;5.93;;
39140;SDS011;24875;48.436;10.298;2022-12-18T07:13:44;21.93;;;7.43;;
39140;SDS011;24875;48.436;10.298;2022-12-18T07:16:12;19.47;;;6.80;;
39140;SDS011;24875;48.436;10.298;2022-12-18T07:18:41;16.33;;;7.27;;
39140;SDS011;24875;48.436;10.298;2022-12-18T07:21:08;28.83;;;7.20;;
39140;SDS011;24875;48.436;10.298;2022-12-18T07:23:38;35.90;;;8.53;;
39140;SDS011;24875;48.436;10.298;2022-12-18T07:26:05;18.43;;;8.90;;
39140;SDS011;24875;48.436;10.298;2022-12-18T07:28:34;18.33;;;7.03;;
39140;SDS011;24875;48.436;10.298;2022-12-18T07:31:02;25.87;;;9.37;;
39140;SDS011;24875;48.436;10.298;2022-12-18T07:33:28;16.77;;;6.20;;
39140;SDS011;24875;48.436;10.298;2022-12-18T07:35:55;18.60;;;7.43;;
39140;SDS011;24875;48.436;10.298;2022-12-18T07:38:21;25.00;;;9.93;;
39140;SDS011;24875;48.436;10.298;2022-12-18T07:40:49;17.73;;;7.63;;
39140;SDS011;24875;48.436;10.298;2022-12-18T07:43:16;21.47;;;7.53;;
39140;SDS011;24875;48.436;10.298;2022-12-18T07:45:42;21.77;;;8.93;;
39140;SDS011;24875;48.436;10.298;2022-12-18T07:48:09;32.13;;;11.47;;
39140;SDS011;24875;48.436;10.298;2022-12-18T07:50:36;24.53;;;8.73;;
39140;SDS011;24875;48.436;10.298;2022-12-18T07:53:03;14.40;;;6.37;;
39140;SDS011;24875;48.436;10.298;2022-12-18T07:55:30;21.57;;;7.00;;
39140;SDS011;24875;48.436;10.298;2022-12-18T07:57:59;22.30;;;6.90;;
39140;SDS011;24875;48.436;10.298;2022-12-18T08:00:26;32.70;;;7.77;;
39140;SDS011;24875;48.436;10.298;2022-12-18T08:02:53;16.30;;;7.13;;
39140;SDS011;24875;48.436;10.298;2022-12-18T08:05:20;28.40;;;8.00;;
39140;SDS011;24875;48.436;10.298;2022-12-18T08:07:47;25.13;;;6.63;;
39140;SDS011;24875;48.436;10.298;2022-12-18T08:10:13;16.77;;;7.10;;
39140;SDS011;24875;48.436;10.298;2022-12-18T08:12:40;25.40;;;8.90;;
39140;SDS011;24875;48.436;10.298;2022-12-18T08:15:09;23.73;;;9.27;;
39140;SDS011;24875;48.436;10.298;2022-12-18T08:17:35;27.10;;;9.47;;
39140;SDS011;24875;48.436;10.298;2022-12-18T08:20:02;22.93;;;7.60;;
39140;SDS011;24875;48.436;10.298;2022-12-18T08:22:29;18.10;;;7.03;;
39140;SDS011;24875;48.436;10.298;2022-12-18T08:24:55;20.57;;;8.30;;
39140;SDS011;24875;48.436;10.298;2022-12-18T08:27:22;36.20;;;9.17;;
39140;SDS011;24875;48.436;10.298;2022-12-18T08:29:48;29.03;;;9.77;;
39140;SDS011;24875;48.436;10.298;2022-12-18T08:32:16;30.07;;;9.97;;
39140;SDS011;24875;48.436;10.298;2022-12-18T08:34:43;21.80;;;6.67;;
39140;SDS011;24875;48.436;10.298;2022-12-18T08:37:09;26.07;;;9.17;;
39140;SDS011;24875;48.436;10.298;2022-12-18T08:39:36;24.73;;;8.90;;
39140;SDS011;24875;48.436;10.298;2022-12-18T08:42:02;27.07;;;8.20;;
39140;SDS011;24875;48.436;10.298;2022-12-18T08:44:58;14.97;;;7.63;;
39140;SDS011;24875;48.436;10.298;2022-12-18T08:47:26;26.50;;;7.47;;
39140;SDS011;24875;48.436;10.298;2022-12-18T08:49:53;20.57;;;8.27;;
39140;SDS011;24875;48.436;10.298;2022-12-18T08:52:19;29.10;;;10.80;;
39140;SDS011;24875;48.436;10.298;2022-12-18T08:54:46;23.63;;;9.50;;
39140;SDS011;24875;48.436;10.298;2022-12-18T08:57:12;24.67;;;8.23;;
39140;SDS011;24875;48.436;10.298;2022-12-18T08:59:39;24.63;;;9.50;;
39140;SDS011;24875;48.436;10.298;2022-12-18T09:02:05;19.27;;;8.87;;
39140;SDS011;24875;48.436;10.298;2022-12-18T09:04:33;39.07;;;12.30;;
39140;SDS011;24875;48.436;10.298;2022-12-18T09:07:00;20.73;;;7.93;;
39140;SDS011;24875;48.436;10.298;2022-12-18T09:09:27;32.67;;;8.80;;
39140;SDS011;24875;48.436;10.298;2022-12-18T09:11:53;24.80;;;7.93;;
39140;SDS011;24875;48.436;10.298;2022-12-18T09:14:20;33.60;;;11.97;;
39140;SDS011;24875;48.436;10.298;2022-12-18T09:16:47;34.00;;;9.87;;
39140;SDS011;24875;48.436;10.298;2022-12-18T09:19:15;30.23;;;11.73;;
39140;SDS011;24875;48.436;10.298;2022-12-18T09:21:43;23.43;;;8.00;;
39140;SDS011;24875;48.436;10.298;2022-12-18T09:24:11;20.93;;;7.97;;
39140;SDS011;24875;48.436;10.298;2022-12-18T09:26:39;24.17;;;7.63;;
39140;SDS011;24875;48.436;10.298;2022-12-18T09:29:05;27.73;;;9.20;;
39140;SDS011;24875;48.436;10.298;2022-12-18T09:31:34;34.70;;;9.97;;
39140;SDS011;24875;48.436;10.298;2022-12-18T09:34:01;15.77;;;5.67;;
39140;SDS011;24875;48.436;10.298;2022-12-18T09:36:28;25.60;;;6.93;;
39140;SDS011;24875;48.436;10.298;2022-12-18T09:38:56;15.50;;;7.20;;
39140;SDS011;24875;48.436;10.298;2022-12-18T09:41:27;20.60;;;7.33;;
39140;SDS011;24875;48.436;10.298;2022-12-18T09:44:03;12.83;;;5.40;;
39140;SDS011;24875;48.436;10.298;2022-12-18T09:46:38;25.03;;;8.90;;
39140;SDS011;24875;48.436;10.298;2022-12-18T09:49:10;43.57;;;10.37;;
39140;SDS011;24875;48.436;10.298;2022-12-18T09:51:41;36.03;;;9.93;;
39140;SDS011;24875;48.436;10.298;2022-12-18T09:54:14;17.17;;;7.70;;
39140;SDS011;24875;48.436;10.298;2022-12-18T09:56:46;19.87;;;8.73;;
39140;SDS011;24875;48.436;10.298;2022-12-18T09:59:16;23.87;;;7.60;;
39140;SDS011;24875;48.436;10.298;2022-12-18T10:01:47;21.03;;;8.67;;
39140;SDS011;24875;48.436;10.298;2022-12-18T10:04:14;33.20;;;11.40;;
39140;SDS011;24875;48.436;10.298;2022-12-18T10:06:43;26.83;;;8.57;;
39140;SDS011;24875;48.436;10.298;2022-12-18T10:09:18;21.50;;;8.17;;
39140;SDS011;24875;48.436;10.298;2022-12-18T10:11:54;23.00;;;10.43;;
39140;SDS011;24875;48.436;10.298;2022-12-18T10:14:30;18.03;;;6.67;;
39140;SDS011;24875;48.436;10.298;2022-12-18T10:17:03;15.90;;;6.93;;
39140;SDS011;24875;48.436;10.298;2022-12-18T10:19:41;25.03;;;8.90;;
39140;SDS011;24875;48.436;10.298;2022-12-18T10:22:20;22.47;;;9.10;;
39140;SDS011;24875;48.436;10.298;2022-12-18T10:24:54;24.77;;;8.27;;
39140;SDS011;24875;48.436;10.298;2022-12-18T10:27:25;25.37;;;10.47;;
39140;SDS011;24875;48.436;10.298;2022-12-18T10:29:53;36.13;;;10.53;;
39140;SDS011;24875;48.436;10.298;2022-12-18T10:32:21;26.80;;;9.33;;
39140;SDS011;24875;48.436;10.298;2022-12-18T10:34:50;27.33;;;10.53;;
39140;SDS011;24875;48.436;10.298;2022-12-18T10:37:19;28.63;;;10.73;;
39140;SDS011;24875;48.436;10.298;2022-12-18T10:39:47;19.93;;;7.93;;
39140;SDS011;24875;48.436;10.298;2022-12-18T10:42:34;23.23;;;9.20;;
39140;SDS011;24875;48.436;10.298;2022-12-18T10:45:01;32.53;;;10.00;;
39140;SDS011;24875;48.436;10.298;2022-12-18T10:47:31;23.97;;;5.77;;
39140;SDS011;24875;48.436;10.298;2022-12-18T10:50:00;32.50;;;9.83;;
39140;SDS011;24875;48.436;10.298;2022-12-18T10:52:27;33.87;;;9.93;;
39140;SDS011;24875;48.436;10.298;2022-12-18T10:54:54;27.97;;;10.17;;
39140;SDS011;24875;48.436;10.298;2022-12-18T10:57:32;27.27;;;9.47;;
39140;SDS011;24875;48.436;10.298;2022-12-18T11:00:19;29.77;;;10.13;;
39140;SDS011;24875;48.436;10.298;2022-12-18T11:02:50;31.50;;;12.37;;
39140;SDS011;24875;48.436;10.298;2022-12-18T11:05:24;29.27;;;13.03;;
39140;SDS011;24875;48.436;10.298;2022-12-18T11:07:53;33.77;;;10.70;;
39140;SDS011;24875;48.436;10.298;2022-12-18T11:10:20;29.53;;;10.87;;
39140;SDS011;24875;48.436;10.298;2022-12-18T11:12:53;30.60;;;11.13;;
39140;SDS011;24875;48.436;10.298;2022-12-18T11:15:20;34.43;;;10.77;;
39140;SDS011;24875;48.436;10.298;2022-12-18T11:17:50;26.43;;;8.70;;
39140;SDS011;24875;48.436;10.298;2022-12-18T11:20:30;25.57;;;8.03;;
39140;SDS011;24875;48.436;10.298;2022-12-18T11:22:58;28.30;;;9.00;;
39140;SDS011;24875;48.436;10.298;2022-12-18T11:25:27;32.97;;;10.13;;
39140;SDS011;24875;48.436;10.298;2022-12-18T11:27:56;20.27;;;8.73;;
39140;SDS011;24875;48.436;10.298;2022-12-18T11:30:26;23.50;;;8.00;;
39140;SDS011;24875;48.436;10.298;2022-12-18T11:32:55;30.77;;;8.97;;
39140;SDS011;24875;48.436;10.298;2022-12-18T11:35:29;30.10;;;11.07;;
39140;SDS011;24875;48.436;10.298;2022-12-18T11:38:02;30.70;;;10.30;;
39140;SDS011;24875;48.436;10.298;2022-12-18T11:40:33;22.47;;;8.93;;
39140;SDS011;24875;48.436;10.298;2022-12-18T11:43:05;29.80;;;8.87;;
39140;SDS011;24875;48.436;10.298;2022-12-18T11:45:37;27.63;;;9.43;;
39140;SDS011;24875;48.436;10.298;2022-12-18T11:48:12;21.63;;;7.90;;
39140;SDS011;24875;48.436;10.298;2022-12-18T11:50:44;30.53;;;10.80;;
39140;SDS011;24875;48.436;10.298;2022-12-18T11:53:15;29.27;;;9.93;;
39140;SDS011;24875;48.436;10.298;2022-12-18T11:55:44;30.73;;;8.87;;
39140;SDS011;24875;48.436;10.298;2022-12-18T11:58:20;29.47;;;8.53;;
39140;SDS011;24875;48.436;10.298;2022-12-18T12:01:00;41.73;;;11.30;;
39140;SDS011;24875;48.436;10.298;2022-12-18T12:06:31;30.63;;;8.73;;
39140;SDS011;24875;48.436;10.298;2022-12-18T12:09:11;27.73;;;8.00;;
39140;SDS011;24875;48.436;10.298;2022-12-18T12:11:50;22.50;;;8.97;;
39140;SDS011;24875;48.436;10.298;2022-12-18T12:14:34;33.17;;;10.57;;
39140;SDS011;24875;48.436;10.298;2022-12-18T12:17:11;19.13;;;7.57;;
39140;SDS011;24875;48.436;10.298;2022-12-18T12:19:48;22.43;;;8.73;;
39140;SDS011;24875;48.436;10.298;2022-12-18T12:22:23;23.00;;;8.00;;
39140;SDS011;24875;48.436;10.298;2022-12-18T12:24:59;25.13;;;8.87;;
39140;SDS011;24875;48.436;10.298;2022-12-18T12:27:41;25.63;;;7.63;;
39140;SDS011;24875;48.436;10.298;2022-12-18T12:30:18;18.83;;;7.07;;
39140;SDS011;24875;48.436;10.298;2022-12-18T12:32:54;25.70;;;8.47;;
39140;SDS011;24875;48.436;10.298;2022-12-18T12:35:32;19.07;;;7.93;;
39140;SDS011;24875;48.436;10.298;2022-12-18T12:38:09;27.93;;;9.50;;
39140;SDS011;24875;48.436;10.298;2022-12-18T12:40:41;25.07;;;8.33;;
39140;SDS011;24875;48.436;10.298;2022-12-18T12:43:15;32.57;;;9.00;;
39140;SDS011;24875;48.436;10.298;2022-12-18T12:45:50;27.13;;;9.07;;
39140;SDS011;24875;48.436;10.298;2022-12-18T12:51:08;24.70;;;10.97;;
39140;SDS011;24875;48.436;10.298;2022-12-18T12:53:39;21.73;;;9.97;;
39140;SDS011;24875;48.436;10.298;2022-12-18T12:56:07;22.83;;;8.20;;
39140;SDS011;24875;48.436;10.298;2022-12-18T12:58:40;25.43;;;9.60;;
39140;SDS011;24875;48.436;10.298;2022-12-18T13:01:14;27.90;;;9.10;;
39140;SDS011;24875;48.436;10.298;2022-12-18T13:03:52;25.47;;;7.87;;
39140;SDS011;24875;48.436;10.298;2022-12-18T13:06:28;23.77;;;8.07;;
39140;SDS011;24875;48.436;10.298;2022-12-18T13:09:03;25.63;;;8.03;;
39140;SDS011;24875;48.436;10.298;2022-12-18T13:11:36;22.20;;;8.90;;
39140;SDS011;24875;48.436;10.298;2022-12-18T13:14:24;25.37;;;8.70;;
39140;SDS011;24875;48.436;10.298;2022-12-18T13:20:11;16.67;;;6.50;;
39140;SDS011;24875;48.436;10.298;2022-12-18T13:22:41;18.50;;;7.13;;
39140;SDS011;24875;48.436;10.298;2022-12-18T13:28:00;18.40;;;6.87;;
39140;SDS011;24875;48.436;10.298;2022-12-18T13:30:43;19.63;;;7.33;;
39140;SDS011;24875;48.436;10.298;2022-12-18T13:36:14;18.63;;;8.00;;
39140;SDS011;24875;48.436;10.298;2022-12-18T13:39:08;44.67;;;15.40;;
39140;SDS011;24875;48.436;10.298;2022-12-18T13:41:51;21.07;;;8.17;;
39140;SDS011;24875;48.436;10.298;2022-12-18T13:44:28;18.67;;;7.07;;
39140;SDS011;24875;48.436;10.298;2022-12-18T13:46:58;17.23;;;6.37;;
39140;SDS011;24875;48.436;10.298;2022-12-18T13:49:27;24.40;;;9.07;;
39140;SDS011;24875;48.436;10.298;2022-12-18T13:51:59;19.80;;;6.73;;
39140;SDS011;24875;48.436;10.298;2022-12-18T13:54:28;21.23;;;5.93;;
39140;SDS011;24875;48.436;10.298;2022-12-18T13:56:59;23.20;;;7.43;;
39140;SDS011;24875;48.436;10.298;2022-12-18T13:59:26;22.93;;;8.40;;
39140;SDS011;24875;48.436;10.298;2022-12-18T14:02:00;20.87;;;7.73;;
39140;SDS011;24875;48.436;10.298;2022-12-18T14:04:33;15.73;;;5.63;;
39140;SDS011;24875;48.436;10.298;2022-12-18T14:07:02;15.90;;;6.07;;
39140;SDS011;24875;48.436;10.298;2022-12-18T14:09:34;26.13;;;8.37;;
39140;SDS011;24875;48.436;10.298;2022-12-18T14:12:03;24.80;;;7.87;;
39140;SDS011;24875;48.436;10.298;2022-12-18T14:14:47;21.30;;;8.87;;
39140;SDS011;24875;48.436;10.298;2022-12-18T14:17:17;15.60;;;6.30;;
39140;SDS011;24875;48.436;10.298;2022-12-18T14:19:46;27.27;;;8.10;;
39140;SDS011;24875;48.436;10.298;2022-12-18T14:22:15;16.10;;;6.70;;
39140;SDS011;24875;48.436;10.298;2022-12-18T14:24:44;23.60;;;6.43;;
39140;SDS011;24875;48.436;10.298;2022-12-18T14:27:21;20.10;;;5.53;;
39140;SDS011;24875;48.436;10.298;2022-12-18T14:29:49;21.20;;;7.50;;
39140;SDS011;24875;48.436;10.298;2022-12-18T14:32:16;20.30;;;9.17;;
39140;SDS011;24875;48.436;10.298;2022-12-18T14:34:47;15.33;;;6.77;;
39140;SDS011;24875;48.436;10.298;2022-12-18T14:37:15;18.10;;;7.77;;
39140;SDS011;24875;48.436;10.298;2022-12-18T14:39:53;18.03;;;6.03;;
39140;SDS011;24875;48.436;10.298;2022-12-18T14:42:20;20.13;;;6.43;;
39140;SDS011;24875;48.436;10.298;2022-12-18T14:44:47;19.80;;;6.73;;
39140;SDS011;24875;48.436;10.298;2022-12-18T14:47:13;20.30;;;7.33;;